createdAt,value
2018-07-09T00:01:06.959Z,1.27
2018-07-09T00:03:35.165Z,1.43
2018-07-09T00:06:03.346Z,1.20
2018-07-09T00:08:31.562Z,1.30
2018-07-09T00:11:07.384Z,1.77
2018-07-09T00:13:36.930Z,1.13
2018-07-09T00:16:05.270Z,1.20
2018-07-09T00:18:33.518Z,1.20
2018-07-09T00:21:01.742Z,1.50
2018-07-09T00:23:29.976Z,1.00
2018-07-09T00:25:58.571Z,1.50
2018-07-09T00:28:26.986Z,1.37
2018-07-09T00:30:55.283Z,1.50
2018-07-09T00:33:23.750Z,1.50
2018-07-09T00:35:52.000Z,1.27
2018-07-09T00:38:20.730Z,1.30
2018-07-09T00:40:48.987Z,1.40
2018-07-09T00:43:17.498Z,1.50
2018-07-09T00:45:45.791Z,1.47
2018-07-09T00:48:14.006Z,1.60
2018-07-09T00:50:42.337Z,1.33
2018-07-09T00:53:10.541Z,1.20
2018-07-09T00:55:38.753Z,1.50
2018-07-09T00:58:07.268Z,1.30
2018-07-09T01:00:35.515Z,1.57
2018-07-09T01:03:03.751Z,1.27
2018-07-09T01:05:31.943Z,1.83
2018-07-09T01:08:00.164Z,1.30
2018-07-09T01:10:28.773Z,1.43
2018-07-09T01:12:57.113Z,1.47
2018-07-09T01:15:25.409Z,1.47
2018-07-09T01:17:53.659Z,1.40
2018-07-09T01:20:21.881Z,1.67
2018-07-09T01:22:50.320Z,1.63
2018-07-09T01:25:18.490Z,1.40
2018-07-09T01:27:46.681Z,1.43
2018-07-09T01:30:15.945Z,1.23
2018-07-09T01:32:44.134Z,1.33
2018-07-09T01:35:13.204Z,1.20
2018-07-09T01:37:42.120Z,1.53
2018-07-09T01:40:10.574Z,1.20
2018-07-09T01:42:38.786Z,1.33
2018-07-09T01:45:07.041Z,1.53
2018-07-09T01:47:35.250Z,1.40
2018-07-09T01:50:03.502Z,1.23
2018-07-09T01:52:31.983Z,1.47
2018-07-09T01:55:00.650Z,1.30
2018-07-09T01:57:28.858Z,1.70
2018-07-09T01:59:57.109Z,1.43
2018-07-09T02:02:25.456Z,1.60
2018-07-09T02:04:53.688Z,1.37
2018-07-09T02:07:21.914Z,1.50
2018-07-09T02:09:50.410Z,1.47
2018-07-09T02:12:18.727Z,1.33
2018-07-09T02:14:47.010Z,1.67
2018-07-09T02:17:15.178Z,1.50
2018-07-09T02:19:43.402Z,1.63
2018-07-09T02:22:11.587Z,1.83
2018-07-09T02:24:39.828Z,1.80
2018-07-09T02:27:08.057Z,1.73
2018-07-09T02:29:36.293Z,1.47
2018-07-09T02:32:04.588Z,1.47
2018-07-09T02:34:32.847Z,1.73
2018-07-09T02:37:01.048Z,1.43
2018-07-09T02:39:29.235Z,1.40
2018-07-09T02:41:57.550Z,1.60
2018-07-09T02:44:25.829Z,1.40
2018-07-09T02:46:54.022Z,1.17
2018-07-09T02:49:22.340Z,1.60
2018-07-09T02:51:50.859Z,1.57
2018-07-09T02:54:19.139Z,1.57
2018-07-09T02:56:47.370Z,1.77
2018-07-09T02:59:15.649Z,1.57
2018-07-09T03:01:43.911Z,1.70
2018-07-09T03:04:12.295Z,1.50
2018-07-09T03:06:40.542Z,1.93
2018-07-09T03:09:08.820Z,1.67
2018-07-09T03:11:37.095Z,1.77
2018-07-09T03:14:05.858Z,1.13
2018-07-09T03:16:34.469Z,1.73
2018-07-09T03:19:02.710Z,1.37
2018-07-09T03:21:30.844Z,1.70
2018-07-09T03:23:59.074Z,1.50
2018-07-09T03:26:27.230Z,1.43
2018-07-09T03:28:55.477Z,1.50
2018-07-09T03:31:23.652Z,1.70
2018-07-09T03:33:51.882Z,1.93
2018-07-09T03:36:20.267Z,1.77
2018-07-09T03:38:48.479Z,1.77
2018-07-09T03:41:16.682Z,1.80
2018-07-09T03:43:44.950Z,1.70
2018-07-09T03:46:13.246Z,1.70
2018-07-09T03:48:41.446Z,1.77
2018-07-09T03:51:09.764Z,1.43
2018-07-09T03:53:37.962Z,1.50
2018-07-09T03:56:06.301Z,1.70
2018-07-09T03:58:34.551Z,2.53
2018-07-09T04:01:02.715Z,2.00
2018-07-09T04:03:30.905Z,2.00
2018-07-09T04:05:59.080Z,1.93
2018-07-09T04:08:27.302Z,1.67
2018-07-09T04:10:55.561Z,2.00
2018-07-09T04:13:24.010Z,1.80
2018-07-09T04:15:52.227Z,1.90
2018-07-09T04:18:24.550Z,1.40
2018-07-09T04:20:54.416Z,1.50
2018-07-09T04:23:22.677Z,1.77
2018-07-09T04:25:51.327Z,1.93
2018-07-09T04:28:19.578Z,1.57
2018-07-09T04:30:48.325Z,1.83
2018-07-09T04:33:16.511Z,2.17
2018-07-09T04:35:44.754Z,2.13
2018-07-09T04:38:12.987Z,2.37
2018-07-09T04:40:41.232Z,2.67
2018-07-09T04:43:09.479Z,2.10
2018-07-09T04:45:37.674Z,2.63
2018-07-09T04:48:06.042Z,2.37
2018-07-09T04:50:35.214Z,1.77
2018-07-09T04:53:03.435Z,2.47
2018-07-09T04:55:31.632Z,2.03
2018-07-09T04:57:59.876Z,2.40
2018-07-09T05:00:28.130Z,2.03
2018-07-09T05:02:56.327Z,2.33
2018-07-09T05:05:24.600Z,1.90
2018-07-09T05:07:52.861Z,2.33
2018-07-09T05:10:21.043Z,2.30
2018-07-09T05:12:49.266Z,2.10
2018-07-09T05:15:17.513Z,2.50
2018-07-09T05:17:45.730Z,1.97
2018-07-09T05:20:14.006Z,2.07
2018-07-09T05:22:42.232Z,2.37
2018-07-09T05:25:10.427Z,2.63
2018-07-09T05:27:38.716Z,1.80
2018-07-09T05:30:07.198Z,2.40
2018-07-09T05:32:35.438Z,2.17
2018-07-09T05:35:03.747Z,2.10
2018-07-09T05:37:31.938Z,2.20
2018-07-09T05:40:00.204Z,2.23
2018-07-09T05:42:28.789Z,1.77
2018-07-09T05:44:56.980Z,2.27
2018-07-09T05:47:25.214Z,2.47
2018-07-09T05:49:54.020Z,2.03
2018-07-09T05:52:22.192Z,2.40
2018-07-09T05:54:50.412Z,1.80
2018-07-09T05:57:18.635Z,2.30
2018-07-09T05:59:46.830Z,1.90
2018-07-09T06:02:15.047Z,2.13
2018-07-09T06:04:43.259Z,2.07
2018-07-09T06:07:11.499Z,1.77
2018-07-09T06:09:39.690Z,1.90
2018-07-09T06:12:07.974Z,1.90
2018-07-09T06:14:36.217Z,1.90
2018-07-09T06:17:04.426Z,2.33
2018-07-09T06:19:32.816Z,1.60
2018-07-09T06:22:01.018Z,2.00
2018-07-09T06:24:29.218Z,1.80
2018-07-09T06:26:57.512Z,1.50
2018-07-09T06:29:25.702Z,1.53
2018-07-09T06:31:53.973Z,1.43
2018-07-09T06:34:22.408Z,1.37
2018-07-09T06:36:50.606Z,1.40
2018-07-09T06:39:18.842Z,1.90
2018-07-09T06:41:47.050Z,1.70
2018-07-09T06:44:15.262Z,1.17
2018-07-09T06:46:43.467Z,1.40
2018-07-09T06:49:11.735Z,1.50
2018-07-09T06:51:39.967Z,1.50
2018-07-09T06:54:08.184Z,1.40
2018-07-09T06:56:36.409Z,1.67
2018-07-09T06:59:04.661Z,1.33
2018-07-09T07:01:32.867Z,1.60
2018-07-09T07:04:01.134Z,1.40
2018-07-09T07:06:29.369Z,1.63
2018-07-09T07:08:57.800Z,1.27
2018-07-09T07:11:25.912Z,1.20
2018-07-09T07:13:54.146Z,1.40
2018-07-09T07:16:22.379Z,1.20
2018-07-09T07:18:50.584Z,1.50
2018-07-09T07:21:18.839Z,1.63
2018-07-09T07:23:46.848Z,1.50
2018-07-09T07:26:15.121Z,1.43
2018-07-09T07:28:43.401Z,1.50
2018-07-09T07:31:11.619Z,1.63
2018-07-09T07:33:39.906Z,1.30
2018-07-09T07:36:08.186Z,1.23
2018-07-09T07:38:36.418Z,1.43
2018-07-09T07:41:04.645Z,1.30
2018-07-09T07:43:32.863Z,1.30
2018-07-09T07:46:01.078Z,1.53
2018-07-09T07:48:29.291Z,1.27
2018-07-09T07:50:57.605Z,1.10
2018-07-09T07:53:25.866Z,1.27
2018-07-09T07:55:55.199Z,1.10
2018-07-09T07:58:23.431Z,1.30
2018-07-09T08:00:51.659Z,1.40
2018-07-09T08:03:20.067Z,1.17
2018-07-09T08:05:48.287Z,1.40
2018-07-09T08:08:16.493Z,1.30
2018-07-09T08:10:44.486Z,1.17
2018-07-09T08:13:27.717Z,1.50
2018-07-09T08:15:41.851Z,1.37
2018-07-09T08:18:10.107Z,1.87
2018-07-09T08:20:38.609Z,1.00
2018-07-09T08:23:06.807Z,1.10
2018-07-09T08:25:35.199Z,1.70
2018-07-09T08:28:03.684Z,1.37
2018-07-09T08:30:31.934Z,2.10
2018-07-09T08:32:59.924Z,0.90
2018-07-09T08:35:28.210Z,1.20
2018-07-09T08:37:56.470Z,1.27
2018-07-09T08:40:24.689Z,1.20
2018-07-09T08:42:52.901Z,1.40
2018-07-09T08:45:21.104Z,1.40
2018-07-09T08:47:49.359Z,1.55
2018-07-09T08:50:18.091Z,1.27
2018-07-09T08:52:46.462Z,1.82
2018-07-09T08:55:14.776Z,1.30
2018-07-09T08:57:42.943Z,1.57
2018-07-09T09:00:11.228Z,1.00
2018-07-09T09:02:39.446Z,1.35
2018-07-09T09:05:07.967Z,1.20
2018-07-09T09:07:36.164Z,1.35
2018-07-09T09:10:04.577Z,1.17
2018-07-09T09:12:32.806Z,1.50
2018-07-09T09:15:01.063Z,1.55
2018-07-09T09:17:29.252Z,1.05
2018-07-09T09:19:57.434Z,1.50
2018-07-09T09:22:25.675Z,1.27
2018-07-09T09:24:53.865Z,1.50
2018-07-09T09:27:22.545Z,1.45
2018-07-09T09:29:50.887Z,1.07
2018-07-09T09:32:19.100Z,1.50
2018-07-09T09:34:47.378Z,1.60
2018-07-09T09:37:15.652Z,1.30
2018-07-09T09:39:43.895Z,1.43
2018-07-09T09:42:12.136Z,1.30
2018-07-09T09:44:40.353Z,1.73
2018-07-09T09:47:08.646Z,1.23
2018-07-09T09:49:36.891Z,1.33
2018-07-09T09:52:05.172Z,1.23
2018-07-09T09:54:33.366Z,1.77
2018-07-09T09:57:01.600Z,1.30
2018-07-09T09:59:29.842Z,1.30
2018-07-09T10:01:58.166Z,1.63
2018-07-09T10:04:26.390Z,1.40
2018-07-09T10:06:55.563Z,1.30
2018-07-09T10:09:23.760Z,1.17
2018-07-09T10:11:51.989Z,1.23
2018-07-09T10:14:20.268Z,1.40
2018-07-09T10:16:48.533Z,1.23
2018-07-09T10:19:16.714Z,1.33
2018-07-09T10:21:44.951Z,1.30
2018-07-09T10:24:13.190Z,1.03
2018-07-09T10:26:41.445Z,1.13
2018-07-09T10:29:09.674Z,1.33
2018-07-09T10:31:37.874Z,1.40
2018-07-09T10:34:06.746Z,1.20
2018-07-09T10:36:34.981Z,1.37
2018-07-09T10:39:03.851Z,1.40
2018-07-09T10:41:32.076Z,1.17
2018-07-09T10:44:00.314Z,1.30
2018-07-09T10:46:28.534Z,1.50
2018-07-09T10:48:56.792Z,1.70
2018-07-09T10:51:24.986Z,1.70
2018-07-09T10:53:53.187Z,1.40
2018-07-09T10:56:21.479Z,1.60
2018-07-09T10:58:49.666Z,1.70
2018-07-09T11:01:17.878Z,1.47
2018-07-09T11:03:46.203Z,1.50
2018-07-09T11:06:14.455Z,1.50
2018-07-09T11:08:42.653Z,1.60
2018-07-09T11:11:10.858Z,1.27
2018-07-09T11:13:39.103Z,1.43
2018-07-09T11:16:07.302Z,1.37
2018-07-09T11:18:35.511Z,1.30
2018-07-09T11:21:03.762Z,1.07
2018-07-09T11:23:31.982Z,1.20
2018-07-09T11:26:00.200Z,1.40
2018-07-09T11:28:28.448Z,1.20
2018-07-09T11:30:56.679Z,1.47
2018-07-09T11:33:24.918Z,1.00
2018-07-09T11:35:53.139Z,1.10
2018-07-09T11:38:21.465Z,1.40
2018-07-09T11:40:49.646Z,1.57
2018-07-09T11:43:17.886Z,1.50
2018-07-09T11:45:46.097Z,1.50
2018-07-09T11:48:14.375Z,1.40
2018-07-09T11:50:42.592Z,1.43
2018-07-09T11:53:10.778Z,1.50
2018-07-09T11:55:38.954Z,1.43
2018-07-09T11:58:07.247Z,1.60
2018-07-09T12:00:35.491Z,1.37
2018-07-09T12:03:03.770Z,1.90
2018-07-09T12:05:31.974Z,1.20
2018-07-09T12:08:00.199Z,1.13
2018-07-09T12:10:28.536Z,1.20
2018-07-09T12:12:56.825Z,1.70
2018-07-09T12:15:25.038Z,1.50
2018-07-09T12:17:53.326Z,1.50
2018-07-09T12:20:21.599Z,1.30
2018-07-09T12:22:49.842Z,1.13
2018-07-09T12:25:18.011Z,1.40
2018-07-09T12:27:46.229Z,1.37
2018-07-09T12:30:14.495Z,1.30
2018-07-09T12:32:42.823Z,1.30
2018-07-09T12:35:11.083Z,1.23
2018-07-09T12:37:39.378Z,1.40
2018-07-09T12:40:07.665Z,1.10
2018-07-09T12:42:35.870Z,1.40
2018-07-09T12:45:04.437Z,1.13
2018-07-09T12:47:32.768Z,1.20
2018-07-09T12:50:01.029Z,1.10
2018-07-09T12:52:29.317Z,1.50
2018-07-09T12:54:57.602Z,1.70
2018-07-09T12:57:25.898Z,1.70
2018-07-09T12:59:54.183Z,1.50
2018-07-09T13:02:22.403Z,1.50
2018-07-09T13:04:50.603Z,2.00
2018-07-09T13:07:19.451Z,1.70
2018-07-09T13:09:47.686Z,2.00
2018-07-09T13:12:24.047Z,2.03
2018-07-09T13:14:52.392Z,2.07
2018-07-09T13:17:20.381Z,2.00
2018-07-09T13:19:48.757Z,1.97
2018-07-09T13:22:17.338Z,2.30
2018-07-09T13:24:45.684Z,2.17
2018-07-09T13:27:13.934Z,2.10
2018-07-09T13:29:42.247Z,2.17
2018-07-09T13:32:10.594Z,1.80
2018-07-09T13:34:38.886Z,2.43
2018-07-09T13:37:07.157Z,2.10
2018-07-09T13:39:35.899Z,2.10
2018-07-09T13:42:04.254Z,1.60
2018-07-09T13:44:32.554Z,2.23
2018-07-09T13:47:00.830Z,1.90
2018-07-09T13:49:29.192Z,2.17
2018-07-09T13:51:57.438Z,2.00
2018-07-09T13:54:25.753Z,2.00
2018-07-09T13:56:53.948Z,2.10
2018-07-09T13:59:22.219Z,1.60
2018-07-09T14:01:50.426Z,1.90
2018-07-09T14:04:18.660Z,1.97
2018-07-09T14:06:46.912Z,1.53
2018-07-09T14:09:15.164Z,1.57
2018-07-09T14:11:43.395Z,1.67
2018-07-09T14:14:11.595Z,1.40
2018-07-09T14:16:39.901Z,1.73
2018-07-09T14:20:20.825Z,1.13
2018-07-09T14:22:49.290Z,1.60
2018-07-09T14:25:18.107Z,1.20
2018-07-09T14:27:46.443Z,1.47
2018-07-09T14:30:14.818Z,1.30
2018-07-09T14:32:44.595Z,1.47
2018-07-09T14:35:12.803Z,1.20
2018-07-09T14:37:41.042Z,1.70
2018-07-09T14:40:09.293Z,1.50
2018-07-09T14:42:37.519Z,1.57
2018-07-09T14:45:05.925Z,1.53
2018-07-09T14:47:34.123Z,1.63
2018-07-09T14:50:02.597Z,1.60
2018-07-09T14:52:31.076Z,1.43
2018-07-09T14:54:59.650Z,1.30
2018-07-09T14:57:28.007Z,1.53
2018-07-09T14:59:56.488Z,1.57
2018-07-09T15:02:24.772Z,1.37
2018-07-09T15:04:53.359Z,2.00
2018-07-09T15:07:21.661Z,1.93
2018-07-09T15:09:49.862Z,2.07
2018-07-09T15:12:18.128Z,1.90
2018-07-09T15:14:46.662Z,1.70
2018-07-09T15:17:14.904Z,1.60
2018-07-09T15:19:43.154Z,1.63
2018-07-09T15:22:11.348Z,1.63
2018-07-09T15:24:39.638Z,1.90
2018-07-09T15:27:07.909Z,1.80
2018-07-09T15:29:36.131Z,1.90
2018-07-09T15:32:10.817Z,1.80
2018-07-09T15:34:39.151Z,1.97
2018-07-09T15:37:07.624Z,2.10
2018-07-09T15:39:36.361Z,1.97
2018-07-09T15:42:04.590Z,2.00
2018-07-09T15:44:34.159Z,2.40
2018-07-09T15:47:03.983Z,1.83
2018-07-09T15:49:32.172Z,2.10
2018-07-09T15:52:02.828Z,2.17
2018-07-09T15:54:31.034Z,1.83
2018-07-09T15:57:00.219Z,1.93
2018-07-09T15:59:28.450Z,2.13
2018-07-09T16:01:56.665Z,2.10
2018-07-09T16:04:25.401Z,2.03
2018-07-09T16:06:53.634Z,2.07
2018-07-09T16:09:21.851Z,1.50
2018-07-09T16:11:50.044Z,2.20
2018-07-09T16:14:18.266Z,1.57
2018-07-09T16:16:46.639Z,1.53
2018-07-09T16:19:15.670Z,1.90
2018-07-09T16:21:43.920Z,1.73
2018-07-09T16:24:12.271Z,1.40
2018-07-09T16:26:40.571Z,1.47
2018-07-09T16:29:08.825Z,1.60
2018-07-09T16:31:37.050Z,1.50
2018-07-09T16:34:05.582Z,1.50
2018-07-09T16:36:33.800Z,1.20
2018-07-09T16:39:02.033Z,1.10
2018-07-09T16:41:30.228Z,1.20
2018-07-09T16:43:58.487Z,1.20
2018-07-09T16:46:26.750Z,1.23
2018-07-09T16:48:54.997Z,1.37
2018-07-09T16:51:23.206Z,1.40
2018-07-09T16:53:51.455Z,1.50
2018-07-09T16:56:19.715Z,1.13
2018-07-09T16:58:47.940Z,1.00
2018-07-09T17:01:16.209Z,1.00
2018-07-09T17:03:44.466Z,1.20
2018-07-09T17:06:12.700Z,1.13
2018-07-09T17:08:40.959Z,1.10
2018-07-09T17:11:09.184Z,1.00
2018-07-09T17:13:37.487Z,0.90
2018-07-09T17:16:06.039Z,1.00
2018-07-09T17:18:34.294Z,0.97
2018-07-09T17:21:02.554Z,0.90
2018-07-09T17:23:30.835Z,1.10
2018-07-09T17:25:59.099Z,1.23
2018-07-09T17:28:27.306Z,1.10
2018-07-09T17:30:55.522Z,1.03
2018-07-09T17:33:24.199Z,1.70
2018-07-09T17:35:52.418Z,1.23
2018-07-09T17:38:20.681Z,1.00
2018-07-09T17:40:48.913Z,1.10
2018-07-09T17:43:17.403Z,1.10
2018-07-09T17:45:45.655Z,1.20
2018-07-09T17:48:13.913Z,1.20
2018-07-09T17:50:42.116Z,1.30
2018-07-09T17:53:10.383Z,1.00
2018-07-09T17:55:38.612Z,1.00
2018-07-09T17:58:06.871Z,1.30
2018-07-09T18:00:35.183Z,1.00
2018-07-09T18:03:03.410Z,1.30
2018-07-09T18:05:31.653Z,1.20
2018-07-09T18:08:00.022Z,1.30
2018-07-09T18:10:28.254Z,1.77
2018-07-09T18:12:56.711Z,1.30
2018-07-09T18:15:25.612Z,1.23
2018-07-09T18:17:53.903Z,1.10
2018-07-09T18:20:22.940Z,1.20
2018-07-09T18:22:51.185Z,1.20
2018-07-09T18:25:19.434Z,1.10
2018-07-09T18:27:47.710Z,1.30
2018-07-09T18:30:15.956Z,1.03
2018-07-09T18:32:44.315Z,1.30
2018-07-09T18:35:12.580Z,1.37
2018-07-09T18:37:40.790Z,1.47
2018-07-09T18:40:09.027Z,1.10
2018-07-09T18:42:37.225Z,1.20
2018-07-09T18:45:05.610Z,0.80
2018-07-09T18:47:33.920Z,1.17
2018-07-09T18:50:02.164Z,0.80
2018-07-09T18:52:30.653Z,0.87
2018-07-09T18:54:58.955Z,1.13
2018-07-09T18:57:27.239Z,1.00
2018-07-09T18:59:55.595Z,0.90
2018-07-09T19:02:23.888Z,1.20
2018-07-09T19:04:52.067Z,1.10
2018-07-09T19:07:25.783Z,1.20
2018-07-09T19:09:54.214Z,1.13
2018-07-09T19:12:22.836Z,1.13
2018-07-09T19:14:51.627Z,1.30
2018-07-09T19:17:59.682Z,1.13
2018-07-09T19:20:39.443Z,1.40
2018-07-09T19:23:07.524Z,1.20
2018-07-09T19:25:35.697Z,1.13
2018-07-09T19:28:03.895Z,1.37
2018-07-09T19:30:31.088Z,1.90
2018-07-09T19:32:58.292Z,2.00
2018-07-09T19:35:25.516Z,2.00
2018-07-09T19:37:52.882Z,1.40
2018-07-09T19:40:19.951Z,1.50
2018-07-09T19:42:47.168Z,1.63
2018-07-09T19:45:14.426Z,1.33
2018-07-09T19:47:41.664Z,1.63
2018-07-09T19:50:08.955Z,1.37
2018-07-09T19:52:36.171Z,1.53
2018-07-09T19:55:03.650Z,1.53
2018-07-09T19:57:30.902Z,1.33
2018-07-09T19:59:58.171Z,1.30
2018-07-09T20:02:25.393Z,1.30
2018-07-09T20:04:52.573Z,1.37
2018-07-09T20:07:19.830Z,1.40
2018-07-09T20:09:52.625Z,1.50
2018-07-09T20:12:25.207Z,1.73
2018-07-09T20:14:57.862Z,1.37
2018-07-09T20:17:28.900Z,1.60
2018-07-09T20:19:56.186Z,1.40
2018-07-09T20:22:23.411Z,1.70
2018-07-09T20:24:50.667Z,1.60
2018-07-09T20:27:17.881Z,1.73
2018-07-09T20:29:45.165Z,1.40
2018-07-09T20:32:12.372Z,1.50
2018-07-09T20:34:39.598Z,1.80
2018-07-09T20:37:06.789Z,2.00
2018-07-09T20:39:33.984Z,2.10
2018-07-09T20:42:01.198Z,2.00
2018-07-09T20:44:28.385Z,2.43
2018-07-09T20:46:55.603Z,1.60
2018-07-09T20:49:22.881Z,2.50
2018-07-09T20:51:50.103Z,1.97
2018-07-09T20:54:17.550Z,2.10
2018-07-09T20:56:44.758Z,2.30
2018-07-09T20:59:11.987Z,2.30
2018-07-09T21:01:39.240Z,2.37
2018-07-09T21:04:37.523Z,1.70
2018-07-09T21:07:04.741Z,1.70
2018-07-09T21:09:32.816Z,1.87
2018-07-09T21:12:04.698Z,2.20
2018-07-09T21:14:31.892Z,1.70
2018-07-09T21:16:59.210Z,2.00
2018-07-09T21:19:26.389Z,2.20
2018-07-09T21:21:53.823Z,1.90
2018-07-09T21:24:20.969Z,2.23
2018-07-09T21:26:48.178Z,2.60
2018-07-09T21:29:15.645Z,2.03
2018-07-09T21:31:42.850Z,2.20
2018-07-09T21:34:10.101Z,2.10
2018-07-09T21:36:37.297Z,2.20
2018-07-09T21:39:04.790Z,2.10
2018-07-09T21:41:32.014Z,2.60
2018-07-09T21:43:59.482Z,2.30
2018-07-09T21:46:26.724Z,2.73
2018-07-09T21:48:54.307Z,2.40
2018-07-09T21:51:21.560Z,2.00
2018-07-09T21:53:48.760Z,2.17
2018-07-09T21:56:15.963Z,1.97
2018-07-09T21:58:43.167Z,2.53
2018-07-09T22:01:10.409Z,2.00
2018-07-09T22:03:37.594Z,2.00
2018-07-09T22:06:04.822Z,2.00
2018-07-09T22:08:32.057Z,2.00
2018-07-09T22:10:59.621Z,1.30
2018-07-09T22:13:26.832Z,2.20
2018-07-09T22:15:54.047Z,1.90
2018-07-09T22:18:21.334Z,1.67
2018-07-09T22:20:48.521Z,1.83
2018-07-09T22:23:15.756Z,1.63
2018-07-09T22:25:42.990Z,1.80
2018-07-09T22:28:10.222Z,1.60
2018-07-09T22:30:38.430Z,1.70
2018-07-09T22:33:06.714Z,2.33
2018-07-09T22:35:34.959Z,1.90
2018-07-09T22:38:03.249Z,1.77
2018-07-09T22:40:31.470Z,1.77
2018-07-09T22:43:05.015Z,1.57
2018-07-09T22:45:33.220Z,1.60
2018-07-09T22:48:01.425Z,1.27
2018-07-09T22:50:29.641Z,1.50
2018-07-09T22:52:57.833Z,1.30
2018-07-09T22:55:37.514Z,0.90
2018-07-09T22:58:05.994Z,1.10
2018-07-09T23:00:34.218Z,1.07
2018-07-09T23:03:17.240Z,0.87
2018-07-09T23:05:46.229Z,0.90
2018-07-09T23:08:14.476Z,0.77
2018-07-09T23:12:56.930Z,1.20
2018-07-09T23:15:36.046Z,0.87
2018-07-09T23:18:15.627Z,0.90
2018-07-09T23:20:57.087Z,0.80
2018-07-09T23:23:24.292Z,0.90
2018-07-09T23:25:51.478Z,1.17
2018-07-09T23:28:18.690Z,0.90
2018-07-09T23:30:45.879Z,0.90
2018-07-09T23:33:13.124Z,1.10
2018-07-09T23:35:40.311Z,0.80
2018-07-09T23:38:07.526Z,1.00
2018-07-09T23:40:34.716Z,0.93
2018-07-09T23:43:01.922Z,1.30
2018-07-09T23:45:29.123Z,1.37
2018-07-09T23:47:56.349Z,1.10
2018-07-09T23:50:23.568Z,1.00
2018-07-09T23:52:50.781Z,1.07
2018-07-09T23:55:17.971Z,1.20
